sensor_id;sensor_type;location;lat;lon;timestamp;temperature;humidity
64939;DHT22;51453;47.738;7.420;2023-08-12T00:00:16;21.40;99.90
64939;DHT22;51453;47.738;7.420;2023-08-12T00:02:43;21.30;99.90
64939;DHT22;51453;47.738;7.420;2023-08-12T00:05:10;21.40;99.90
64939;DHT22;51453;47.738;7.420;2023-08-12T00:07:40;21.40;99.90
64939;DHT22;51453;47.738;7.420;2023-08-12T00:10:10;21.40;99.90
64939;DHT22;51453;47.738;7.420;2023-08-12T00:12:36;21.40;99.90
64939;DHT22;51453;47.738;7.420;2023-08-12T00:15:03;21.40;99.90
64939;DHT22;51453;47.738;7.420;2023-08-12T00:17:30;21.50;99.90
64939;DHT22;51453;47.738;7.420;2023-08-12T00:19:56;21.40;99.90
64939;DHT22;51453;47.738;7.420;2023-08-12T00:22:22;21.50;99.90
64939;DHT22;51453;47.738;7.420;2023-08-12T00:24:48;21.50;99.90
64939;DHT22;51453;47.738;7.420;2023-08-12T00:27:13;21.50;99.90
64939;DHT22;51453;47.738;7.420;2023-08-12T00:29:39;21.40;99.90
64939;DHT22;51453;47.738;7.420;2023-08-12T00:32:05;21.40;99.90
64939;DHT22;51453;47.738;7.420;2023-08-12T00:34:31;21.40;99.90
64939;DHT22;51453;47.738;7.420;2023-08-12T00:36:56;21.40;99.90
64939;DHT22;51453;47.738;7.420;2023-08-12T00:39:22;21.40;99.90
64939;DHT22;51453;47.738;7.420;2023-08-12T00:41:48;21.50;99.90
64939;DHT22;51453;47.738;7.420;2023-08-12T00:44:14;21.40;99.90
64939;DHT22;51453;47.738;7.420;2023-08-12T00:46:41;21.40;99.90
64939;DHT22;51453;47.738;7.420;2023-08-12T00:49:08;21.30;99.90
64939;DHT22;51453;47.738;7.420;2023-08-12T00:51:35;21.30;99.90
64939;DHT22;51453;47.738;7.420;2023-08-12T00:54:02;21.40;99.90
64939;DHT22;51453;47.738;7.420;2023-08-12T00:56:30;21.30;99.90
64939;DHT22;51453;47.738;7.420;2023-08-12T00:58:57;21.40;99.90
64939;DHT22;51453;47.738;7.420;2023-08-12T01:01:24;21.30;99.90
64939;DHT22;51453;47.738;7.420;2023-08-12T01:03:50;21.40;99.90
64939;DHT22;51453;47.738;7.420;2023-08-12T01:06:16;21.30;99.90
64939;DHT22;51453;47.738;7.420;2023-08-12T01:08:42;21.40;99.90
64939;DHT22;51453;47.738;7.420;2023-08-12T01:11:21;21.40;99.90
64939;DHT22;51453;47.738;7.420;2023-08-12T01:16:36;21.30;99.90
64939;DHT22;51453;47.738;7.420;2023-08-12T01:19:05;21.30;99.90
64939;DHT22;51453;47.738;7.420;2023-08-12T01:21:33;21.20;99.90
64939;DHT22;51453;47.738;7.420;2023-08-12T01:24:02;21.20;99.90
64939;DHT22;51453;47.738;7.420;2023-08-12T01:26:28;21.20;99.90
64939;DHT22;51453;47.738;7.420;2023-08-12T01:28:54;21.20;99.90
64939;DHT22;51453;47.738;7.420;2023-08-12T01:31:41;21.20;99.90
64939;DHT22;51453;47.738;7.420;2023-08-12T01:34:15;21.10;99.90
64939;DHT22;51453;47.738;7.420;2023-08-12T01:36:46;21.10;99.90
64939;DHT22;51453;47.738;7.420;2023-08-12T01:39:16;21.10;99.90
64939;DHT22;51453;47.738;7.420;2023-08-12T01:41:44;21.10;99.90
64939;DHT22;51453;47.738;7.420;2023-08-12T01:44:09;21.10;99.90
64939;DHT22;51453;47.738;7.420;2023-08-12T01:46:36;21.00;99.90
64939;DHT22;51453;47.738;7.420;2023-08-12T01:49:01;21.00;99.90
64939;DHT22;51453;47.738;7.420;2023-08-12T01:51:29;21.10;99.90
64939;DHT22;51453;47.738;7.420;2023-08-12T01:53:54;21.10;99.90
64939;DHT22;51453;47.738;7.420;2023-08-12T01:56:20;21.10;99.90
64939;DHT22;51453;47.738;7.420;2023-08-12T01:58:46;21.10;99.90
64939;DHT22;51453;47.738;7.420;2023-08-12T02:01:11;21.10;99.90
64939;DHT22;51453;47.738;7.420;2023-08-12T02:03:37;21.10;99.90
64939;DHT22;51453;47.738;7.420;2023-08-12T02:06:04;21.20;99.90
64939;DHT22;51453;47.738;7.420;2023-08-12T02:08:29;21.20;99.90
64939;DHT22;51453;47.738;7.420;2023-08-12T02:10:55;21.20;99.90
64939;DHT22;51453;47.738;7.420;2023-08-12T02:13:21;21.20;99.90
64939;DHT22;51453;47.738;7.420;2023-08-12T02:15:46;21.10;99.90
64939;DHT22;51453;47.738;7.420;2023-08-12T02:18:12;21.10;99.90
64939;DHT22;51453;47.738;7.420;2023-08-12T02:20:37;21.10;99.90
64939;DHT22;51453;47.738;7.420;2023-08-12T02:23:03;21.10;99.90
64939;DHT22;51453;47.738;7.420;2023-08-12T02:25:29;21.10;99.90
64939;DHT22;51453;47.738;7.420;2023-08-12T02:27:54;21.20;99.90
64939;DHT22;51453;47.738;7.420;2023-08-12T02:30:20;21.20;99.90
64939;DHT22;51453;47.738;7.420;2023-08-12T02:32:45;21.10;99.90
64939;DHT22;51453;47.738;7.420;2023-08-12T02:35:11;21.20;99.90
64939;DHT22;51453;47.738;7.420;2023-08-12T02:37:37;21.20;99.90
64939;DHT22;51453;47.738;7.420;2023-08-12T02:40:04;21.20;99.90
64939;DHT22;51453;47.738;7.420;2023-08-12T02:42:32;21.20;99.90
64939;DHT22;51453;47.738;7.420;2023-08-12T02:44:58;21.20;99.90
64939;DHT22;51453;47.738;7.420;2023-08-12T02:47:26;21.20;99.90
64939;DHT22;51453;47.738;7.420;2023-08-12T02:49:51;21.20;99.90
64939;DHT22;51453;47.738;7.420;2023-08-12T02:52:17;21.20;99.90
64939;DHT22;51453;47.738;7.420;2023-08-12T02:54:42;21.10;99.90
64939;DHT22;51453;47.738;7.420;2023-08-12T02:57:08;21.20;99.90
64939;DHT22;51453;47.738;7.420;2023-08-12T02:59:33;21.20;99.90
64939;DHT22;51453;47.738;7.420;2023-08-12T03:01:59;21.20;99.90
64939;DHT22;51453;47.738;7.420;2023-08-12T03:04:25;21.20;99.90
64939;DHT22;51453;47.738;7.420;2023-08-12T03:06:50;21.20;99.90
64939;DHT22;51453;47.738;7.420;2023-08-12T03:09:16;21.10;99.90
64939;DHT22;51453;47.738;7.420;2023-08-12T03:11:43;21.10;99.90
64939;DHT22;51453;47.738;7.420;2023-08-12T03:14:09;21.20;99.90
64939;DHT22;51453;47.738;7.420;2023-08-12T03:16:35;21.20;99.90
64939;DHT22;51453;47.738;7.420;2023-08-12T03:19:00;21.20;99.90
64939;DHT22;51453;47.738;7.420;2023-08-12T03:21:26;21.20;99.90
64939;DHT22;51453;47.738;7.420;2023-08-12T03:23:51;21.20;99.90
64939;DHT22;51453;47.738;7.420;2023-08-12T03:26:17;21.20;99.90
64939;DHT22;51453;47.738;7.420;2023-08-12T03:28:43;21.20;99.90
64939;DHT22;51453;47.738;7.420;2023-08-12T03:31:08;21.20;99.90
64939;DHT22;51453;47.738;7.420;2023-08-12T03:33:34;21.20;99.90
64939;DHT22;51453;47.738;7.420;2023-08-12T03:36:00;21.20;99.90
64939;DHT22;51453;47.738;7.420;2023-08-12T03:38:25;21.20;99.90
64939;DHT22;51453;47.738;7.420;2023-08-12T03:40:51;21.20;99.90
64939;DHT22;51453;47.738;7.420;2023-08-12T03:43:17;21.20;99.90
64939;DHT22;51453;47.738;7.420;2023-08-12T03:45:43;21.20;99.90
64939;DHT22;51453;47.738;7.420;2023-08-12T03:48:09;21.20;99.90
64939;DHT22;51453;47.738;7.420;2023-08-12T03:50:39;21.20;99.90
64939;DHT22;51453;47.738;7.420;2023-08-12T03:53:05;21.20;99.90
64939;DHT22;51453;47.738;7.420;2023-08-12T03:55:32;21.20;99.90
64939;DHT22;51453;47.738;7.420;2023-08-12T03:57:59;21.20;99.90
64939;DHT22;51453;47.738;7.420;2023-08-12T04:00:25;21.20;99.90
64939;DHT22;51453;47.738;7.420;2023-08-12T04:02:50;21.20;99.90
64939;DHT22;51453;47.738;7.420;2023-08-12T04:05:16;21.20;99.90
64939;DHT22;51453;47.738;7.420;2023-08-12T04:07:42;21.20;99.90
64939;DHT22;51453;47.738;7.420;2023-08-12T04:10:08;21.20;99.90
64939;DHT22;51453;47.738;7.420;2023-08-12T04:12:33;21.20;99.90
64939;DHT22;51453;47.738;7.420;2023-08-12T04:14:59;21.20;99.90
64939;DHT22;51453;47.738;7.420;2023-08-12T04:17:27;21.10;99.90
64939;DHT22;51453;47.738;7.420;2023-08-12T04:19:53;21.10;99.90
64939;DHT22;51453;47.738;7.420;2023-08-12T04:22:18;21.10;99.90
64939;DHT22;51453;47.738;7.420;2023-08-12T04:24:44;21.10;99.90
64939;DHT22;51453;47.738;7.420;2023-08-12T04:27:09;21.10;99.90
64939;DHT22;51453;47.738;7.420;2023-08-12T04:29:36;21.00;99.90
64939;DHT22;51453;47.738;7.420;2023-08-12T04:32:01;21.00;99.90
64939;DHT22;51453;47.738;7.420;2023-08-12T04:34:27;21.00;99.90
64939;DHT22;51453;47.738;7.420;2023-08-12T04:36:52;21.10;99.90
64939;DHT22;51453;47.738;7.420;2023-08-12T04:39:18;21.00;99.90
64939;DHT22;51453;47.738;7.420;2023-08-12T04:41:44;21.10;99.90
64939;DHT22;51453;47.738;7.420;2023-08-12T04:44:09;21.00;99.90
64939;DHT22;51453;47.738;7.420;2023-08-12T04:46:35;21.10;99.90
64939;DHT22;51453;47.738;7.420;2023-08-12T04:49:00;21.00;99.90
64939;DHT22;51453;47.738;7.420;2023-08-12T04:51:26;21.00;99.90
64939;DHT22;51453;47.738;7.420;2023-08-12T04:53:52;21.00;99.90
64939;DHT22;51453;47.738;7.420;2023-08-12T04:56:17;21.00;99.90
64939;DHT22;51453;47.738;7.420;2023-08-12T04:58:43;21.00;99.90
64939;DHT22;51453;47.738;7.420;2023-08-12T05:01:09;21.10;99.90
64939;DHT22;51453;47.738;7.420;2023-08-12T05:03:35;21.00;99.90
64939;DHT22;51453;47.738;7.420;2023-08-12T05:06:00;21.10;99.90
64939;DHT22;51453;47.738;7.420;2023-08-12T05:08:26;21.10;99.90
64939;DHT22;51453;47.738;7.420;2023-08-12T05:10:51;21.10;99.90
64939;DHT22;51453;47.738;7.420;2023-08-12T05:13:17;21.10;99.90
64939;DHT22;51453;47.738;7.420;2023-08-12T05:15:46;21.10;99.90
64939;DHT22;51453;47.738;7.420;2023-08-12T05:18:13;21.20;99.90
64939;DHT22;51453;47.738;7.420;2023-08-12T05:20:40;21.10;99.90
64939;DHT22;51453;47.738;7.420;2023-08-12T05:23:06;21.10;99.90
64939;DHT22;51453;47.738;7.420;2023-08-12T05:25:32;21.20;99.90
64939;DHT22;51453;47.738;7.420;2023-08-12T05:27:57;21.20;99.90
64939;DHT22;51453;47.738;7.420;2023-08-12T05:30:23;21.10;99.90
64939;DHT22;51453;47.738;7.420;2023-08-12T05:32:49;21.20;99.90
64939;DHT22;51453;47.738;7.420;2023-08-12T05:35:14;21.20;99.90
64939;DHT22;51453;47.738;7.420;2023-08-12T05:37:40;21.20;99.90
64939;DHT22;51453;47.738;7.420;2023-08-12T05:40:08;21.20;99.90
64939;DHT22;51453;47.738;7.420;2023-08-12T05:42:34;21.30;99.90
64939;DHT22;51453;47.738;7.420;2023-08-12T05:45:00;21.30;99.90
64939;DHT22;51453;47.738;7.420;2023-08-12T05:47:25;21.40;99.90
64939;DHT22;51453;47.738;7.420;2023-08-12T05:49:51;21.50;99.90
64939;DHT22;51453;47.738;7.420;2023-08-12T05:52:17;21.60;99.90
64939;DHT22;51453;47.738;7.420;2023-08-12T05:54:42;21.60;99.90
64939;DHT22;51453;47.738;7.420;2023-08-12T05:57:08;21.70;99.90
64939;DHT22;51453;47.738;7.420;2023-08-12T05:59:33;21.90;99.90
64939;DHT22;51453;47.738;7.420;2023-08-12T06:01:59;22.20;99.90
64939;DHT22;51453;47.738;7.420;2023-08-12T06:04:24;22.40;99.90
64939;DHT22;51453;47.738;7.420;2023-08-12T06:06:50;22.60;99.90
64939;DHT22;51453;47.738;7.420;2023-08-12T06:09:16;22.60;99.90
64939;DHT22;51453;47.738;7.420;2023-08-12T06:11:42;22.60;99.90
64939;DHT22;51453;47.738;7.420;2023-08-12T06:14:07;22.60;99.90
64939;DHT22;51453;47.738;7.420;2023-08-12T06:16:33;22.50;99.90
64939;DHT22;51453;47.738;7.420;2023-08-12T06:18:59;22.50;99.90
64939;DHT22;51453;47.738;7.420;2023-08-12T06:21:25;22.50;99.90
64939;DHT22;51453;47.738;7.420;2023-08-12T06:23:50;22.60;99.90
64939;DHT22;51453;47.738;7.420;2023-08-12T06:26:16;22.70;99.90
64939;DHT22;51453;47.738;7.420;2023-08-12T06:28:42;22.90;99.90
64939;DHT22;51453;47.738;7.420;2023-08-12T06:31:07;23.00;99.90
64939;DHT22;51453;47.738;7.420;2023-08-12T06:33:33;23.10;99.90
64939;DHT22;51453;47.738;7.420;2023-08-12T06:35:59;23.20;99.90
64939;DHT22;51453;47.738;7.420;2023-08-12T06:38:24;23.20;99.90
64939;DHT22;51453;47.738;7.420;2023-08-12T06:40:50;23.40;99.90
64939;DHT22;51453;47.738;7.420;2023-08-12T06:43:15;23.50;99.90
64939;DHT22;51453;47.738;7.420;2023-08-12T06:45:41;23.50;99.90
64939;DHT22;51453;47.738;7.420;2023-08-12T06:48:07;23.60;99.90
64939;DHT22;51453;47.738;7.420;2023-08-12T06:50:33;23.70;99.90
64939;DHT22;51453;47.738;7.420;2023-08-12T06:52:59;23.90;99.90
64939;DHT22;51453;47.738;7.420;2023-08-12T06:55:24;24.00;99.90
64939;DHT22;51453;47.738;7.420;2023-08-12T06:57:50;24.10;99.90
64939;DHT22;51453;47.738;7.420;2023-08-12T07:00:15;24.10;99.90
64939;DHT22;51453;47.738;7.420;2023-08-12T07:02:41;24.10;99.90
64939;DHT22;51453;47.738;7.420;2023-08-12T07:05:08;24.00;99.90
64939;DHT22;51453;47.738;7.420;2023-08-12T07:07:34;23.80;99.90
64939;DHT22;51453;47.738;7.420;2023-08-12T07:09:59;23.70;99.90
64939;DHT22;51453;47.738;7.420;2023-08-12T07:12:25;23.70;99.90
64939;DHT22;51453;47.738;7.420;2023-08-12T07:14:50;23.60;99.90
64939;DHT22;51453;47.738;7.420;2023-08-12T07:17:16;23.50;99.90
64939;DHT22;51453;47.738;7.420;2023-08-12T07:19:42;23.50;99.90
64939;DHT22;51453;47.738;7.420;2023-08-12T07:22:07;23.40;99.90
64939;DHT22;51453;47.738;7.420;2023-08-12T07:24:33;23.30;99.90
64939;DHT22;51453;47.738;7.420;2023-08-12T07:26:59;23.30;99.90
64939;DHT22;51453;47.738;7.420;2023-08-12T07:29:24;23.20;99.90
64939;DHT22;51453;47.738;7.420;2023-08-12T07:31:52;23.20;99.90
64939;DHT22;51453;47.738;7.420;2023-08-12T07:34:18;23.10;99.90
64939;DHT22;51453;47.738;7.420;2023-08-12T07:36:43;22.90;99.90
64939;DHT22;51453;47.738;7.420;2023-08-12T07:39:09;22.80;99.90
64939;DHT22;51453;47.738;7.420;2023-08-12T07:41:35;22.80;99.90
64939;DHT22;51453;47.738;7.420;2023-08-12T07:44:00;22.70;99.90
64939;DHT22;51453;47.738;7.420;2023-08-12T07:46:27;22.60;99.90
64939;DHT22;51453;47.738;7.420;2023-08-12T07:48:55;22.50;99.90
64939;DHT22;51453;47.738;7.420;2023-08-12T07:51:21;22.30;99.90
64939;DHT22;51453;47.738;7.420;2023-08-12T07:53:46;21.90;99.90
64939;DHT22;51453;47.738;7.420;2023-08-12T07:56:12;21.60;99.90
64939;DHT22;51453;47.738;7.420;2023-08-12T07:58:38;21.40;99.90
64939;DHT22;51453;47.738;7.420;2023-08-12T08:01:03;21.20;99.90
64939;DHT22;51453;47.738;7.420;2023-08-12T08:03:30;21.10;99.90
64939;DHT22;51453;47.738;7.420;2023-08-12T08:05:56;20.90;99.90
64939;DHT22;51453;47.738;7.420;2023-08-12T08:08:21;20.90;99.90
64939;DHT22;51453;47.738;7.420;2023-08-12T08:10:47;20.90;99.90
64939;DHT22;51453;47.738;7.420;2023-08-12T08:13:13;20.90;99.90
64939;DHT22;51453;47.738;7.420;2023-08-12T08:15:38;21.00;99.90
64939;DHT22;51453;47.738;7.420;2023-08-12T08:18:04;21.10;99.90
64939;DHT22;51453;47.738;7.420;2023-08-12T08:20:30;21.20;99.90
64939;DHT22;51453;47.738;7.420;2023-08-12T08:22:56;21.30;99.90
64939;DHT22;51453;47.738;7.420;2023-08-12T08:25:22;21.50;99.90
64939;DHT22;51453;47.738;7.420;2023-08-12T08:27:48;21.60;99.90
64939;DHT22;51453;47.738;7.420;2023-08-12T08:30:13;21.60;99.90
64939;DHT22;51453;47.738;7.420;2023-08-12T08:32:39;21.70;99.90
64939;DHT22;51453;47.738;7.420;2023-08-12T08:35:05;21.70;99.90
64939;DHT22;51453;47.738;7.420;2023-08-12T08:37:31;21.80;99.90
64939;DHT22;51453;47.738;7.420;2023-08-12T08:39:57;21.80;99.90
64939;DHT22;51453;47.738;7.420;2023-08-12T08:42:24;21.80;99.90
64939;DHT22;51453;47.738;7.420;2023-08-12T08:44:53;21.80;99.90
64939;DHT22;51453;47.738;7.420;2023-08-12T08:47:26;21.90;99.90
64939;DHT22;51453;47.738;7.420;2023-08-12T08:49:55;21.90;99.90
64939;DHT22;51453;47.738;7.420;2023-08-12T08:52:24;21.90;99.90
64939;DHT22;51453;47.738;7.420;2023-08-12T08:54:50;22.00;99.90
64939;DHT22;51453;47.738;7.420;2023-08-12T08:57:17;21.90;99.90
64939;DHT22;51453;47.738;7.420;2023-08-12T08:59:43;21.90;99.90
64939;DHT22;51453;47.738;7.420;2023-08-12T09:02:21;21.90;99.90
64939;DHT22;51453;47.738;7.420;2023-08-12T09:04:47;21.90;99.90
64939;DHT22;51453;47.738;7.420;2023-08-12T09:07:13;21.90;99.90
64939;DHT22;51453;47.738;7.420;2023-08-12T09:09:44;22.00;99.90
64939;DHT22;51453;47.738;7.420;2023-08-12T09:12:14;22.20;99.90
64939;DHT22;51453;47.738;7.420;2023-08-12T09:14:40;22.30;99.90
64939;DHT22;51453;47.738;7.420;2023-08-12T09:17:06;22.40;99.90
64939;DHT22;51453;47.738;7.420;2023-08-12T09:19:32;22.40;99.90
64939;DHT22;51453;47.738;7.420;2023-08-12T09:21:58;22.50;99.90
64939;DHT22;51453;47.738;7.420;2023-08-12T09:24:27;22.60;99.90
64939;DHT22;51453;47.738;7.420;2023-08-12T09:26:53;22.70;99.90
64939;DHT22;51453;47.738;7.420;2023-08-12T09:29:38;22.90;99.90
64939;DHT22;51453;47.738;7.420;2023-08-12T09:32:13;23.00;99.90
64939;DHT22;51453;47.738;7.420;2023-08-12T09:34:53;23.20;99.90
64939;DHT22;51453;47.738;7.420;2023-08-12T09:37:20;23.20;99.90
64939;DHT22;51453;47.738;7.420;2023-08-12T09:39:47;23.30;99.90
64939;DHT22;51453;47.738;7.420;2023-08-12T09:42:15;23.40;99.90
64939;DHT22;51453;47.738;7.420;2023-08-12T09:44:40;23.50;99.90
64939;DHT22;51453;47.738;7.420;2023-08-12T09:47:07;23.40;99.90
64939;DHT22;51453;47.738;7.420;2023-08-12T09:49:35;23.50;99.90
64939;DHT22;51453;47.738;7.420;2023-08-12T09:52:02;23.60;99.90
64939;DHT22;51453;47.738;7.420;2023-08-12T09:54:31;23.70;99.90
64939;DHT22;51453;47.738;7.420;2023-08-12T09:56:59;23.90;99.90
64939;DHT22;51453;47.738;7.420;2023-08-12T09:59:29;24.00;99.90
64939;DHT22;51453;47.738;7.420;2023-08-12T10:01:56;24.00;99.90
64939;DHT22;51453;47.738;7.420;2023-08-12T10:04:24;24.00;99.90
64939;DHT22;51453;47.738;7.420;2023-08-12T10:06:52;24.10;99.90
64939;DHT22;51453;47.738;7.420;2023-08-12T10:09:17;24.10;99.90
64939;DHT22;51453;47.738;7.420;2023-08-12T10:11:44;24.20;99.90
64939;DHT22;51453;47.738;7.420;2023-08-12T10:14:11;24.40;99.90
64939;DHT22;51453;47.738;7.420;2023-08-12T10:16:37;24.40;99.90
64939;DHT22;51453;47.738;7.420;2023-08-12T10:19:05;24.60;99.90
64939;DHT22;51453;47.738;7.420;2023-08-12T10:21:31;24.70;99.90
64939;DHT22;51453;47.738;7.420;2023-08-12T10:24:00;24.70;99.90
64939;DHT22;51453;47.738;7.420;2023-08-12T10:26:29;24.70;99.90
64939;DHT22;51453;47.738;7.420;2023-08-12T10:28:55;24.70;99.90
64939;DHT22;51453;47.738;7.420;2023-08-12T10:31:22;24.70;99.90
64939;DHT22;51453;47.738;7.420;2023-08-12T10:33:47;24.70;99.90
64939;DHT22;51453;47.738;7.420;2023-08-12T10:36:16;24.70;99.90
64939;DHT22;51453;47.738;7.420;2023-08-12T10:38:44;24.60;99.90
64939;DHT22;51453;47.738;7.420;2023-08-12T10:44:05;24.40;99.90
64939;DHT22;51453;47.738;7.420;2023-08-12T10:46:35;24.20;99.90
64939;DHT22;51453;47.738;7.420;2023-08-12T10:51:46;24.00;99.90
64939;DHT22;51453;47.738;7.420;2023-08-12T10:54:28;23.90;99.90
64939;DHT22;51453;47.738;7.420;2023-08-12T10:59:53;23.50;99.90
64939;DHT22;51453;47.738;7.420;2023-08-12T11:02:29;23.30;99.90
64939;DHT22;51453;47.738;7.420;2023-08-12T11:05:04;23.20;99.90
64939;DHT22;51453;47.738;7.420;2023-08-12T11:07:40;23.20;99.90
64939;DHT22;51453;47.738;7.420;2023-08-12T11:12:35;23.40;99.90
64939;DHT22;51453;47.738;7.420;2023-08-12T11:15:03;23.50;99.90
64939;DHT22;51453;47.738;7.420;2023-08-12T11:17:42;23.50;99.90
64939;DHT22;51453;47.738;7.420;2023-08-12T11:20:09;23.60;99.90
64939;DHT22;51453;47.738;7.420;2023-08-12T11:22:41;23.70;99.90
64939;DHT22;51453;47.738;7.420;2023-08-12T11:25:11;23.90;99.90
64939;DHT22;51453;47.738;7.420;2023-08-12T11:27:41;24.10;99.90
64939;DHT22;51453;47.738;7.420;2023-08-12T11:30:08;24.30;99.90
64939;DHT22;51453;47.738;7.420;2023-08-12T11:32:36;24.30;99.90
64939;DHT22;51453;47.738;7.420;2023-08-12T11:35:03;24.40;99.90
64939;DHT22;51453;47.738;7.420;2023-08-12T11:37:31;24.50;99.90
64939;DHT22;51453;47.738;7.420;2023-08-12T11:39:57;24.50;99.90
64939;DHT22;51453;47.738;7.420;2023-08-12T11:42:22;24.60;99.90
64939;DHT22;51453;47.738;7.420;2023-08-12T11:44:48;24.60;99.90
64939;DHT22;51453;47.738;7.420;2023-08-12T11:47:14;24.70;99.90
64939;DHT22;51453;47.738;7.420;2023-08-12T11:49:39;24.80;99.90
64939;DHT22;51453;47.738;7.420;2023-08-12T11:52:05;24.90;99.90
64939;DHT22;51453;47.738;7.420;2023-08-12T11:54:31;25.00;99.90
64939;DHT22;51453;47.738;7.420;2023-08-12T11:56:58;25.20;99.90
64939;DHT22;51453;47.738;7.420;2023-08-12T11:59:24;25.30;99.90
64939;DHT22;51453;47.738;7.420;2023-08-12T12:01:52;25.50;99.90
64939;DHT22;51453;47.738;7.420;2023-08-12T12:04:21;25.50;99.90
64939;DHT22;51453;47.738;7.420;2023-08-12T12:06:47;25.50;99.90
64939;DHT22;51453;47.738;7.420;2023-08-12T12:09:15;25.50;99.90
64939;DHT22;51453;47.738;7.420;2023-08-12T12:11:44;25.50;99.90
64939;DHT22;51453;47.738;7.420;2023-08-12T12:14:10;25.50;99.90
64939;DHT22;51453;47.738;7.420;2023-08-12T12:19:18;25.60;99.90
64939;DHT22;51453;47.738;7.420;2023-08-12T12:21:49;25.70;99.90
64939;DHT22;51453;47.738;7.420;2023-08-12T12:24:15;25.70;99.90
64939;DHT22;51453;47.738;7.420;2023-08-12T12:26:42;25.90;99.90
64939;DHT22;51453;47.738;7.420;2023-08-12T12:29:07;25.90;99.90
64939;DHT22;51453;47.738;7.420;2023-08-12T12:31:35;26.10;99.90
64939;DHT22;51453;47.738;7.420;2023-08-12T12:34:02;26.20;99.90
64939;DHT22;51453;47.738;7.420;2023-08-12T12:36:34;26.20;99.90
64939;DHT22;51453;47.738;7.420;2023-08-12T12:38:59;26.20;99.90
64939;DHT22;51453;47.738;7.420;2023-08-12T12:41:25;26.10;99.90
64939;DHT22;51453;47.738;7.420;2023-08-12T12:43:51;26.10;99.90
64939;DHT22;51453;47.738;7.420;2023-08-12T12:46:16;26.00;99.90
64939;DHT22;51453;47.738;7.420;2023-08-12T12:48:43;26.10;99.90
64939;DHT22;51453;47.738;7.420;2023-08-12T12:51:10;26.20;99.90
64939;DHT22;51453;47.738;7.420;2023-08-12T12:53:36;26.30;99.90
64939;DHT22;51453;47.738;7.420;2023-08-12T12:56:02;26.40;99.90
64939;DHT22;51453;47.738;7.420;2023-08-12T12:58:32;26.60;99.90
64939;DHT22;51453;47.738;7.420;2023-08-12T13:00:59;26.80;99.90
64939;DHT22;51453;47.738;7.420;2023-08-12T13:03:25;27.00;99.90
64939;DHT22;51453;47.738;7.420;2023-08-12T13:05:50;27.20;99.90
64939;DHT22;51453;47.738;7.420;2023-08-12T13:08:16;27.30;99.90
64939;DHT22;51453;47.738;7.420;2023-08-12T13:10:42;27.30;99.90
64939;DHT22;51453;47.738;7.420;2023-08-12T13:13:08;27.30;99.90
64939;DHT22;51453;47.738;7.420;2023-08-12T13:15:34;27.40;99.90
64939;DHT22;51453;47.738;7.420;2023-08-12T13:18:00;27.40;99.90
64939;DHT22;51453;47.738;7.420;2023-08-12T13:20:25;27.30;99.90
64939;DHT22;51453;47.738;7.420;2023-08-12T13:22:51;27.20;99.90
64939;DHT22;51453;47.738;7.420;2023-08-12T13:25:17;27.20;99.90
64939;DHT22;51453;47.738;7.420;2023-08-12T13:27:42;27.20;99.90
64939;DHT22;51453;47.738;7.420;2023-08-12T13:30:09;27.20;99.90
64939;DHT22;51453;47.738;7.420;2023-08-12T13:32:37;27.20;99.90
64939;DHT22;51453;47.738;7.420;2023-08-12T13:35:03;27.30;99.90
64939;DHT22;51453;47.738;7.420;2023-08-12T13:37:29;27.30;99.90
64939;DHT22;51453;47.738;7.420;2023-08-12T13:39:54;27.40;99.90
64939;DHT22;51453;47.738;7.420;2023-08-12T13:42:20;27.40;99.90
64939;DHT22;51453;47.738;7.420;2023-08-12T13:44:45;27.40;99.90
64939;DHT22;51453;47.738;7.420;2023-08-12T13:47:11;27.30;99.90
64939;DHT22;51453;47.738;7.420;2023-08-12T13:49:37;27.20;99.90
64939;DHT22;51453;47.738;7.420;2023-08-12T13:52:03;27.20;99.90
64939;DHT22;51453;47.738;7.420;2023-08-12T13:54:28;27.20;99.90
64939;DHT22;51453;47.738;7.420;2023-08-12T13:56:54;27.10;99.90
64939;DHT22;51453;47.738;7.420;2023-08-12T13:59:20;27.20;99.90
64939;DHT22;51453;47.738;7.420;2023-08-12T14:01:45;27.30;99.90
64939;DHT22;51453;47.738;7.420;2023-08-12T14:04:11;27.50;99.90
64939;DHT22;51453;47.738;7.420;2023-08-12T14:06:37;27.60;99.90
64939;DHT22;51453;47.738;7.420;2023-08-12T14:09:02;27.70;99.90
64939;DHT22;51453;47.738;7.420;2023-08-12T14:11:28;27.90;99.90
64939;DHT22;51453;47.738;7.420;2023-08-12T14:13:54;28.10;99.90
64939;DHT22;51453;47.738;7.420;2023-08-12T14:16:19;28.10;99.90
64939;DHT22;51453;47.738;7.420;2023-08-12T14:18:45;28.20;99.90
64939;DHT22;51453;47.738;7.420;2023-08-12T14:21:10;28.20;99.90
64939;DHT22;51453;47.738;7.420;2023-08-12T14:23:36;28.30;99.90
64939;DHT22;51453;47.738;7.420;2023-08-12T14:26:02;28.40;99.90
64939;DHT22;51453;47.738;7.420;2023-08-12T14:28:27;28.30;99.90
64939;DHT22;51453;47.738;7.420;2023-08-12T14:30:54;28.30;99.90
64939;DHT22;51453;47.738;7.420;2023-08-12T14:33:19;28.20;99.90
64939;DHT22;51453;47.738;7.420;2023-08-12T14:35:45;28.10;99.90
64939;DHT22;51453;47.738;7.420;2023-08-12T14:38:11;28.00;99.90
64939;DHT22;51453;47.738;7.420;2023-08-12T14:40:38;27.80;99.90
64939;DHT22;51453;47.738;7.420;2023-08-12T14:43:03;27.80;99.90
64939;DHT22;51453;47.738;7.420;2023-08-12T14:45:29;27.80;99.90
64939;DHT22;51453;47.738;7.420;2023-08-12T14:47:55;28.10;99.90
64939;DHT22;51453;47.738;7.420;2023-08-12T14:50:20;28.30;99.90
64939;DHT22;51453;47.738;7.420;2023-08-12T14:52:46;28.50;99.90
64939;DHT22;51453;47.738;7.420;2023-08-12T14:55:11;28.60;99.90
64939;DHT22;51453;47.738;7.420;2023-08-12T14:57:37;28.60;99.90
64939;DHT22;51453;47.738;7.420;2023-08-12T15:00:03;28.60;99.90
64939;DHT22;51453;47.738;7.420;2023-08-12T15:02:32;28.50;99.90
64939;DHT22;51453;47.738;7.420;2023-08-12T15:04:59;28.50;99.90
64939;DHT22;51453;47.738;7.420;2023-08-12T15:07:25;28.50;99.90
64939;DHT22;51453;47.738;7.420;2023-08-12T15:09:51;28.60;99.90
64939;DHT22;51453;47.738;7.420;2023-08-12T15:12:18;28.60;99.90
64939;DHT22;51453;47.738;7.420;2023-08-12T15:14:43;28.60;99.90
64939;DHT22;51453;47.738;7.420;2023-08-12T15:17:09;28.60;99.90
64939;DHT22;51453;47.738;7.420;2023-08-12T15:19:34;28.50;99.90
64939;DHT22;51453;47.738;7.420;2023-08-12T15:22:00;28.40;99.90
64939;DHT22;51453;47.738;7.420;2023-08-12T15:24:26;28.40;99.90
64939;DHT22;51453;47.738;7.420;2023-08-12T15:26:51;28.50;99.90
64939;DHT22;51453;47.738;7.420;2023-08-12T15:29:17;28.50;99.90
64939;DHT22;51453;47.738;7.420;2023-08-12T15:31:42;28.50;99.90
64939;DHT22;51453;47.738;7.420;2023-08-12T15:34:08;28.50;99.90
64939;DHT22;51453;47.738;7.420;2023-08-12T15:36:34;28.50;99.90
64939;DHT22;51453;47.738;7.420;2023-08-12T15:39:01;28.50;99.90
64939;DHT22;51453;47.738;7.420;2023-08-12T15:41:28;28.60;99.90